Terminal Aerodrome Forecast
Issued by NWS Sioux Falls, SD

Home | Current Version | Previous Version | Graphics & Text | Print | Product List | Glossary Off
Versions: 1 2 3 4 5 6 7 8 9 10 11 12 13 14 15 16 17 18 19 20 21 22 23 24 25

000
FTUS43 KFSD 281739
TAFSUX
TAF
KSUX 281739Z 2818/0118 18014G21KT P6SM BKN025
     FM282100 19014G22KT P6SM BKN035
     FM010100 16007KT P6SM SCT035 SCT120
     FM010900 29005KT P6SM SCT100
     FM011100 25006KT P6SM OVC100=

USA.gov is the U.S. government's official web portal to all federal, state and local government web resources and services.